sensor_id;sensor_type;location;lat;lon;timestamp;P1;durP1;ratioP1;P2;durP2;ratioP2
8958;SDS011;4514;49.476;8.484;2023-03-26T00:00:57;4.47;;;1.58;;
8958;SDS011;4514;49.476;8.484;2023-03-26T00:03:23;4.15;;;1.75;;
8958;SDS011;4514;49.476;8.484;2023-03-26T00:05:48;5.10;;;2.13;;
8958;SDS011;4514;49.476;8.484;2023-03-26T00:08:15;5.28;;;1.63;;
8958;SDS011;4514;49.476;8.484;2023-03-26T00:10:43;5.93;;;1.85;;
8958;SDS011;4514;49.476;8.484;2023-03-26T00:13:08;5.53;;;1.58;;
8958;SDS011;4514;49.476;8.484;2023-03-26T00:15:34;4.72;;;1.77;;
8958;SDS011;4514;49.476;8.484;2023-03-26T00:18:00;4.35;;;1.90;;
8958;SDS011;4514;49.476;8.484;2023-03-26T00:20:29;4.45;;;1.83;;
8958;SDS011;4514;49.476;8.484;2023-03-26T00:22:57;3.95;;;1.73;;
8958;SDS011;4514;49.476;8.484;2023-03-26T00:25:28;4.63;;;1.92;;
8958;SDS011;4514;49.476;8.484;2023-03-26T00:27:59;6.25;;;1.80;;
8958;SDS011;4514;49.476;8.484;2023-03-26T00:30:27;5.63;;;2.23;;
8958;SDS011;4514;49.476;8.484;2023-03-26T00:32:55;4.95;;;1.77;;
8958;SDS011;4514;49.476;8.484;2023-03-26T00:35:24;2.90;;;1.50;;
8958;SDS011;4514;49.476;8.484;2023-03-26T00:37:52;4.55;;;1.70;;
8958;SDS011;4514;49.476;8.484;2023-03-26T00:40:17;7.00;;;1.80;;
8958;SDS011;4514;49.476;8.484;2023-03-26T00:42:43;5.90;;;2.00;;
8958;SDS011;4514;49.476;8.484;2023-03-26T00:45:10;6.45;;;1.90;;
8958;SDS011;4514;49.476;8.484;2023-03-26T00:47:36;4.28;;;1.70;;
8958;SDS011;4514;49.476;8.484;2023-03-26T00:50:04;5.80;;;1.63;;
8958;SDS011;4514;49.476;8.484;2023-03-26T00:52:31;4.80;;;1.80;;
8958;SDS011;4514;49.476;8.484;2023-03-26T00:55:00;5.80;;;1.65;;
8958;SDS011;4514;49.476;8.484;2023-03-26T00:57:25;4.47;;;1.65;;
8958;SDS011;4514;49.476;8.484;2023-03-26T00:59:54;4.47;;;1.70;;
8958;SDS011;4514;49.476;8.484;2023-03-26T01:02:22;5.85;;;1.88;;
8958;SDS011;4514;49.476;8.484;2023-03-26T01:04:56;6.35;;;1.75;;
8958;SDS011;4514;49.476;8.484;2023-03-26T01:07:28;5.18;;;1.92;;
8958;SDS011;4514;49.476;8.484;2023-03-26T01:09:58;4.75;;;1.75;;
8958;SDS011;4514;49.476;8.484;2023-03-26T01:12:28;4.65;;;1.70;;
8958;SDS011;4514;49.476;8.484;2023-03-26T01:14:58;5.75;;;1.52;;
8958;SDS011;4514;49.476;8.484;2023-03-26T01:17:25;6.78;;;1.92;;
8958;SDS011;4514;49.476;8.484;2023-03-26T01:22:49;5.22;;;1.92;;
8958;SDS011;4514;49.476;8.484;2023-03-26T01:25:17;4.55;;;1.70;;
8958;SDS011;4514;49.476;8.484;2023-03-26T01:27:46;5.55;;;1.80;;
8958;SDS011;4514;49.476;8.484;2023-03-26T01:41:30;5.88;;;1.85;;
8958;SDS011;4514;49.476;8.484;2023-03-26T01:44:10;4.85;;;1.90;;
8958;SDS011;4514;49.476;8.484;2023-03-26T01:46:39;4.30;;;1.50;;
8958;SDS011;4514;49.476;8.484;2023-03-26T01:49:06;5.07;;;1.95;;
8958;SDS011;4514;49.476;8.484;2023-03-26T01:51:37;5.57;;;1.77;;
8958;SDS011;4514;49.476;8.484;2023-03-26T01:54:04;5.95;;;2.17;;
8958;SDS011;4514;49.476;8.484;2023-03-26T02:02:11;5.88;;;1.95;;
8958;SDS011;4514;49.476;8.484;2023-03-26T02:04:45;6.05;;;1.88;;
8958;SDS011;4514;49.476;8.484;2023-03-26T02:07:20;5.70;;;1.90;;
8958;SDS011;4514;49.476;8.484;2023-03-26T02:09:53;5.75;;;1.98;;
8958;SDS011;4514;49.476;8.484;2023-03-26T02:12:22;6.18;;;2.00;;
8958;SDS011;4514;49.476;8.484;2023-03-26T02:14:51;6.60;;;2.10;;
8958;SDS011;4514;49.476;8.484;2023-03-26T02:17:16;7.18;;;2.45;;
8958;SDS011;4514;49.476;8.484;2023-03-26T02:19:43;3.92;;;1.60;;
8958;SDS011;4514;49.476;8.484;2023-03-26T02:22:09;5.35;;;2.20;;
8958;SDS011;4514;49.476;8.484;2023-03-26T02:24:41;8.07;;;2.10;;
8958;SDS011;4514;49.476;8.484;2023-03-26T02:27:07;5.05;;;1.85;;
8958;SDS011;4514;49.476;8.484;2023-03-26T02:29:43;7.43;;;2.35;;
8958;SDS011;4514;49.476;8.484;2023-03-26T02:32:09;4.97;;;2.00;;
8958;SDS011;4514;49.476;8.484;2023-03-26T02:34:39;6.15;;;2.10;;
8958;SDS011;4514;49.476;8.484;2023-03-26T02:37:07;6.32;;;2.10;;
8958;SDS011;4514;49.476;8.484;2023-03-26T02:39:33;8.35;;;2.00;;
8958;SDS011;4514;49.476;8.484;2023-03-26T02:41:58;7.10;;;1.88;;
8958;SDS011;4514;49.476;8.484;2023-03-26T02:44:24;5.68;;;1.95;;
8958;SDS011;4514;49.476;8.484;2023-03-26T02:46:50;6.10;;;2.20;;
8958;SDS011;4514;49.476;8.484;2023-03-26T02:49:15;5.90;;;2.05;;
8958;SDS011;4514;49.476;8.484;2023-03-26T02:51:40;7.90;;;2.47;;
8958;SDS011;4514;49.476;8.484;2023-03-26T02:54:08;6.72;;;1.92;;
8958;SDS011;4514;49.476;8.484;2023-03-26T02:56:34;6.35;;;2.08;;
8958;SDS011;4514;49.476;8.484;2023-03-26T02:58:59;6.55;;;2.40;;
8958;SDS011;4514;49.476;8.484;2023-03-26T03:01:25;5.82;;;2.00;;
8958;SDS011;4514;49.476;8.484;2023-03-26T03:03:53;7.68;;;2.47;;
8958;SDS011;4514;49.476;8.484;2023-03-26T03:06:18;5.97;;;1.92;;
8958;SDS011;4514;49.476;8.484;2023-03-26T03:08:44;4.43;;;2.10;;
8958;SDS011;4514;49.476;8.484;2023-03-26T03:11:18;4.68;;;2.05;;
8958;SDS011;4514;49.476;8.484;2023-03-26T03:13:48;7.88;;;1.90;;
8958;SDS011;4514;49.476;8.484;2023-03-26T03:16:16;8.27;;;2.50;;
8958;SDS011;4514;49.476;8.484;2023-03-26T03:18:42;7.50;;;2.33;;
8958;SDS011;4514;49.476;8.484;2023-03-26T03:21:10;8.43;;;2.17;;
8958;SDS011;4514;49.476;8.484;2023-03-26T03:23:35;5.38;;;2.42;;
8958;SDS011;4514;49.476;8.484;2023-03-26T03:26:03;8.48;;;2.67;;
8958;SDS011;4514;49.476;8.484;2023-03-26T03:28:30;5.35;;;2.00;;
8958;SDS011;4514;49.476;8.484;2023-03-26T03:30:56;7.60;;;2.25;;
8958;SDS011;4514;49.476;8.484;2023-03-26T03:33:22;8.35;;;1.92;;
8958;SDS011;4514;49.476;8.484;2023-03-26T03:35:48;5.00;;;2.22;;
8958;SDS011;4514;49.476;8.484;2023-03-26T03:38:18;4.25;;;1.85;;
8958;SDS011;4514;49.476;8.484;2023-03-26T03:40:46;8.13;;;2.65;;
8958;SDS011;4514;49.476;8.484;2023-03-26T03:43:12;7.43;;;2.17;;
8958;SDS011;4514;49.476;8.484;2023-03-26T03:45:37;6.47;;;2.50;;
8958;SDS011;4514;49.476;8.484;2023-03-26T03:48:02;6.47;;;2.47;;
8958;SDS011;4514;49.476;8.484;2023-03-26T03:50:28;10.57;;;2.63;;
8958;SDS011;4514;49.476;8.484;2023-03-26T03:52:53;8.10;;;2.40;;
8958;SDS011;4514;49.476;8.484;2023-03-26T03:55:19;5.68;;;2.15;;
8958;SDS011;4514;49.476;8.484;2023-03-26T03:57:48;5.07;;;2.47;;
8958;SDS011;4514;49.476;8.484;2023-03-26T04:00:15;6.18;;;1.95;;
8958;SDS011;4514;49.476;8.484;2023-03-26T04:02:41;5.85;;;2.10;;
8958;SDS011;4514;49.476;8.484;2023-03-26T04:05:06;7.68;;;2.65;;
8958;SDS011;4514;49.476;8.484;2023-03-26T04:07:35;12.77;;;2.78;;
8958;SDS011;4514;49.476;8.484;2023-03-26T04:10:04;5.82;;;2.17;;
8958;SDS011;4514;49.476;8.484;2023-03-26T04:12:30;8.40;;;2.22;;
8958;SDS011;4514;49.476;8.484;2023-03-26T04:14:58;7.65;;;1.95;;
8958;SDS011;4514;49.476;8.484;2023-03-26T04:17:24;8.50;;;2.50;;
8958;SDS011;4514;49.476;8.484;2023-03-26T04:19:53;5.60;;;2.10;;
8958;SDS011;4514;49.476;8.484;2023-03-26T04:22:21;7.68;;;1.85;;
8958;SDS011;4514;49.476;8.484;2023-03-26T04:24:47;5.32;;;2.13;;
8958;SDS011;4514;49.476;8.484;2023-03-26T04:27:19;6.18;;;2.42;;
8958;SDS011;4514;49.476;8.484;2023-03-26T04:29:49;7.93;;;2.55;;
8958;SDS011;4514;49.476;8.484;2023-03-26T04:32:19;6.28;;;2.38;;
8958;SDS011;4514;49.476;8.484;2023-03-26T04:34:48;8.20;;;2.40;;
8958;SDS011;4514;49.476;8.484;2023-03-26T04:37:35;5.57;;;2.47;;
8958;SDS011;4514;49.476;8.484;2023-03-26T04:40:03;6.28;;;2.50;;
8958;SDS011;4514;49.476;8.484;2023-03-26T04:42:34;5.75;;;2.47;;
8958;SDS011;4514;49.476;8.484;2023-03-26T04:45:02;8.00;;;2.55;;
8958;SDS011;4514;49.476;8.484;2023-03-26T04:47:28;8.10;;;2.47;;
8958;SDS011;4514;49.476;8.484;2023-03-26T04:49:56;6.68;;;2.45;;
8958;SDS011;4514;49.476;8.484;2023-03-26T04:52:22;5.53;;;2.22;;
8958;SDS011;4514;49.476;8.484;2023-03-26T04:54:47;6.10;;;2.70;;
8958;SDS011;4514;49.476;8.484;2023-03-26T04:57:18;6.95;;;2.30;;
8958;SDS011;4514;49.476;8.484;2023-03-26T04:59:48;6.05;;;2.20;;
8958;SDS011;4514;49.476;8.484;2023-03-26T05:02:16;6.70;;;2.22;;
8958;SDS011;4514;49.476;8.484;2023-03-26T05:04:42;7.95;;;2.70;;
8958;SDS011;4514;49.476;8.484;2023-03-26T05:07:10;6.22;;;2.83;;
8958;SDS011;4514;49.476;8.484;2023-03-26T05:09:38;6.07;;;2.20;;
8958;SDS011;4514;49.476;8.484;2023-03-26T05:12:03;6.32;;;2.72;;
8958;SDS011;4514;49.476;8.484;2023-03-26T05:14:29;5.82;;;2.90;;
8958;SDS011;4514;49.476;8.484;2023-03-26T05:16:54;6.10;;;2.47;;
8958;SDS011;4514;49.476;8.484;2023-03-26T05:19:20;6.40;;;2.55;;
8958;SDS011;4514;49.476;8.484;2023-03-26T05:21:48;6.05;;;3.05;;
8958;SDS011;4514;49.476;8.484;2023-03-26T05:24:16;5.00;;;2.88;;
8958;SDS011;4514;49.476;8.484;2023-03-26T05:26:43;4.55;;;2.80;;
8958;SDS011;4514;49.476;8.484;2023-03-26T05:29:09;4.57;;;2.47;;
8958;SDS011;4514;49.476;8.484;2023-03-26T05:31:35;7.28;;;2.88;;
8958;SDS011;4514;49.476;8.484;2023-03-26T05:34:02;5.27;;;2.37;;
8958;SDS011;4514;49.476;8.484;2023-03-26T05:36:30;5.67;;;2.17;;
8958;SDS011;4514;49.476;8.484;2023-03-26T05:38:58;5.83;;;2.23;;
8958;SDS011;4514;49.476;8.484;2023-03-26T05:41:23;7.00;;;2.87;;
8958;SDS011;4514;49.476;8.484;2023-03-26T05:43:48;7.32;;;2.90;;
8958;SDS011;4514;49.476;8.484;2023-03-26T05:46:15;5.40;;;2.40;;
8958;SDS011;4514;49.476;8.484;2023-03-26T05:48:40;4.90;;;2.13;;
8958;SDS011;4514;49.476;8.484;2023-03-26T05:51:08;6.07;;;2.27;;
8958;SDS011;4514;49.476;8.484;2023-03-26T05:53:33;9.13;;;2.63;;
8958;SDS011;4514;49.476;8.484;2023-03-26T05:55:59;5.77;;;2.27;;
8958;SDS011;4514;49.476;8.484;2023-03-26T05:58:28;10.40;;;2.37;;
8958;SDS011;4514;49.476;8.484;2023-03-26T06:00:56;5.87;;;2.37;;
8958;SDS011;4514;49.476;8.484;2023-03-26T06:03:33;7.57;;;2.57;;
8958;SDS011;4514;49.476;8.484;2023-03-26T06:06:02;5.87;;;2.40;;
8958;SDS011;4514;49.476;8.484;2023-03-26T06:08:31;7.37;;;2.73;;
8958;SDS011;4514;49.476;8.484;2023-03-26T06:11:04;5.87;;;2.20;;
8958;SDS011;4514;49.476;8.484;2023-03-26T06:13:34;6.10;;;2.20;;
8958;SDS011;4514;49.476;8.484;2023-03-26T06:15:59;6.47;;;2.40;;
8958;SDS011;4514;49.476;8.484;2023-03-26T06:18:27;5.73;;;2.37;;
8958;SDS011;4514;49.476;8.484;2023-03-26T06:20:52;7.17;;;2.47;;
8958;SDS011;4514;49.476;8.484;2023-03-26T06:23:18;4.77;;;2.20;;
8958;SDS011;4514;49.476;8.484;2023-03-26T06:25:47;7.23;;;2.77;;
8958;SDS011;4514;49.476;8.484;2023-03-26T06:28:13;7.63;;;2.53;;
8958;SDS011;4514;49.476;8.484;2023-03-26T06:30:40;7.07;;;2.30;;
8958;SDS011;4514;49.476;8.484;2023-03-26T06:33:06;7.17;;;2.63;;
8958;SDS011;4514;49.476;8.484;2023-03-26T06:35:31;6.20;;;2.50;;
8958;SDS011;4514;49.476;8.484;2023-03-26T06:37:57;8.07;;;2.33;;
8958;SDS011;4514;49.476;8.484;2023-03-26T06:40:25;4.63;;;2.10;;
8958;SDS011;4514;49.476;8.484;2023-03-26T06:42:53;4.63;;;2.20;;
8958;SDS011;4514;49.476;8.484;2023-03-26T06:45:22;7.07;;;2.50;;
8958;SDS011;4514;49.476;8.484;2023-03-26T06:47:47;6.67;;;2.60;;
8958;SDS011;4514;49.476;8.484;2023-03-26T06:50:12;4.57;;;2.10;;
8958;SDS011;4514;49.476;8.484;2023-03-26T06:52:38;6.30;;;2.50;;
8958;SDS011;4514;49.476;8.484;2023-03-26T06:55:03;6.43;;;2.47;;
8958;SDS011;4514;49.476;8.484;2023-03-26T06:57:30;5.73;;;2.40;;
8958;SDS011;4514;49.476;8.484;2023-03-26T06:59:56;3.90;;;2.55;;
8958;SDS011;4514;49.476;8.484;2023-03-26T07:02:21;5.55;;;2.80;;
8958;SDS011;4514;49.476;8.484;2023-03-26T07:04:49;5.57;;;2.93;;
8958;SDS011;4514;49.476;8.484;2023-03-26T07:07:14;7.28;;;3.20;;
8958;SDS011;4514;49.476;8.484;2023-03-26T07:09:40;6.87;;;3.63;;
8958;SDS011;4514;49.476;8.484;2023-03-26T07:12:08;8.50;;;3.50;;
8958;SDS011;4514;49.476;8.484;2023-03-26T07:14:35;8.05;;;3.50;;
8958;SDS011;4514;49.476;8.484;2023-03-26T07:17:02;7.43;;;3.10;;
8958;SDS011;4514;49.476;8.484;2023-03-26T07:19:28;5.53;;;3.00;;
8958;SDS011;4514;49.476;8.484;2023-03-26T07:21:56;7.00;;;2.70;;
8958;SDS011;4514;49.476;8.484;2023-03-26T07:24:21;7.28;;;3.10;;
8958;SDS011;4514;49.476;8.484;2023-03-26T07:26:53;7.20;;;2.90;;
8958;SDS011;4514;49.476;8.484;2023-03-26T07:29:31;7.70;;;2.47;;
8958;SDS011;4514;49.476;8.484;2023-03-26T07:40:04;7.88;;;2.85;;
8958;SDS011;4514;49.476;8.484;2023-03-26T07:45:24;7.30;;;2.87;;
8958;SDS011;4514;49.476;8.484;2023-03-26T07:48:00;6.80;;;2.58;;
8958;SDS011;4514;49.476;8.484;2023-03-26T07:50:26;6.97;;;2.80;;
8958;SDS011;4514;49.476;8.484;2023-03-26T07:52:54;5.13;;;2.40;;
8958;SDS011;4514;49.476;8.484;2023-03-26T07:55:19;6.07;;;2.40;;
8958;SDS011;4514;49.476;8.484;2023-03-26T07:58:00;8.50;;;2.43;;
8958;SDS011;4514;49.476;8.484;2023-03-26T08:05:34;6.90;;;2.40;;
8958;SDS011;4514;49.476;8.484;2023-03-26T08:08:14;7.57;;;2.40;;
8958;SDS011;4514;49.476;8.484;2023-03-26T08:10:56;6.17;;;2.47;;
8958;SDS011;4514;49.476;8.484;2023-03-26T08:19:03;8.87;;;2.90;;
8958;SDS011;4514;49.476;8.484;2023-03-26T08:21:44;5.90;;;2.60;;
8958;SDS011;4514;49.476;8.484;2023-03-26T08:26:51;8.20;;;2.80;;
8958;SDS011;4514;49.476;8.484;2023-03-26T08:32:12;5.57;;;2.87;;
8958;SDS011;4514;49.476;8.484;2023-03-26T08:34:38;9.43;;;3.40;;
8958;SDS011;4514;49.476;8.484;2023-03-26T08:37:06;6.50;;;3.10;;
8958;SDS011;4514;49.476;8.484;2023-03-26T08:39:31;7.27;;;3.10;;
8958;SDS011;4514;49.476;8.484;2023-03-26T08:50:44;8.50;;;2.70;;
8958;SDS011;4514;49.476;8.484;2023-03-26T08:55:52;4.72;;;2.78;;
8958;SDS011;4514;49.476;8.484;2023-03-26T09:12:17;6.57;;;2.83;;
8958;SDS011;4514;49.476;8.484;2023-03-26T09:20:47;4.65;;;2.22;;
8958;SDS011;4514;49.476;8.484;2023-03-26T09:23:43;6.65;;;2.70;;
8958;SDS011;4514;49.476;8.484;2023-03-26T09:26:44;8.45;;;3.08;;
8958;SDS011;4514;49.476;8.484;2023-03-26T09:37:24;5.77;;;2.03;;
8958;SDS011;4514;49.476;8.484;2023-03-26T09:43:19;4.43;;;1.93;;
8958;SDS011;4514;49.476;8.484;2023-03-26T09:46:09;4.70;;;1.75;;
8958;SDS011;4514;49.476;8.484;2023-03-26T09:54:27;4.00;;;1.80;;
8958;SDS011;4514;49.476;8.484;2023-03-26T09:57:19;7.00;;;2.17;;
8958;SDS011;4514;49.476;8.484;2023-03-26T10:08:30;4.25;;;2.03;;
8958;SDS011;4514;49.476;8.484;2023-03-26T10:16:37;4.25;;;2.58;;
8958;SDS011;4514;49.476;8.484;2023-03-26T10:19:22;2.80;;;1.77;;
8958;SDS011;4514;49.476;8.484;2023-03-26T10:33:13;5.15;;;2.22;;
8958;SDS011;4514;49.476;8.484;2023-03-26T10:41:26;3.83;;;1.90;;
8958;SDS011;4514;49.476;8.484;2023-03-26T10:52:21;6.63;;;2.78;;
8958;SDS011;4514;49.476;8.484;2023-03-26T10:55:01;4.20;;;2.20;;
8958;SDS011;4514;49.476;8.484;2023-03-26T10:57:34;5.40;;;2.63;;
8958;SDS011;4514;49.476;8.484;2023-03-26T11:00:13;6.03;;;2.60;;
8958;SDS011;4514;49.476;8.484;2023-03-26T11:02:45;4.80;;;2.60;;
8958;SDS011;4514;49.476;8.484;2023-03-26T11:10:58;3.95;;;2.70;;
8958;SDS011;4514;49.476;8.484;2023-03-26T11:19:33;5.78;;;2.47;;
8958;SDS011;4514;49.476;8.484;2023-03-26T11:25:16;3.63;;;2.00;;
8958;SDS011;4514;49.476;8.484;2023-03-26T11:28:05;4.53;;;1.88;;
8958;SDS011;4514;49.476;8.484;2023-03-26T11:33:34;2.33;;;1.40;;
8958;SDS011;4514;49.476;8.484;2023-03-26T11:36:07;3.72;;;1.60;;
8958;SDS011;4514;49.476;8.484;2023-03-26T11:38:41;5.10;;;1.90;;
8958;SDS011;4514;49.476;8.484;2023-03-26T11:41:42;3.42;;;1.50;;
8958;SDS011;4514;49.476;8.484;2023-03-26T11:44:02;2.38;;;1.30;;
8958;SDS011;4514;49.476;8.484;2023-03-26T11:46:31;2.97;;;1.20;;
8958;SDS011;4514;49.476;8.484;2023-03-26T11:49:07;1.40;;;0.90;;
8958;SDS011;4514;49.476;8.484;2023-03-26T11:51:36;2.67;;;1.40;;
8958;SDS011;4514;49.476;8.484;2023-03-26T11:54:03;3.35;;;1.20;;
8958;SDS011;4514;49.476;8.484;2023-03-26T11:59:14;2.60;;;1.20;;
8958;SDS011;4514;49.476;8.484;2023-03-26T12:04:24;3.20;;;1.10;;
8958;SDS011;4514;49.476;8.484;2023-03-26T12:06:52;4.38;;;1.70;;
8958;SDS011;4514;49.476;8.484;2023-03-26T12:09:23;2.90;;;1.45;;
8958;SDS011;4514;49.476;8.484;2023-03-26T12:11:52;1.42;;;0.90;;
8958;SDS011;4514;49.476;8.484;2023-03-26T12:14:26;3.00;;;0.80;;
8958;SDS011;4514;49.476;8.484;2023-03-26T12:17:07;1.70;;;0.90;;
8958;SDS011;4514;49.476;8.484;2023-03-26T12:19:39;2.78;;;1.00;;
8958;SDS011;4514;49.476;8.484;2023-03-26T12:27:51;2.72;;;1.10;;
8958;SDS011;4514;49.476;8.484;2023-03-26T12:30:40;2.10;;;0.98;;
8958;SDS011;4514;49.476;8.484;2023-03-26T12:33:13;3.25;;;1.38;;
8958;SDS011;4514;49.476;8.484;2023-03-26T12:35:42;3.08;;;1.30;;
8958;SDS011;4514;49.476;8.484;2023-03-26T12:38:12;2.28;;;1.10;;
8958;SDS011;4514;49.476;8.484;2023-03-26T12:40:45;2.72;;;1.10;;
8958;SDS011;4514;49.476;8.484;2023-03-26T12:46:00;4.50;;;1.50;;
8958;SDS011;4514;49.476;8.484;2023-03-26T12:48:26;1.60;;;1.30;;
8958;SDS011;4514;49.476;8.484;2023-03-26T12:56:28;3.53;;;1.30;;
8958;SDS011;4514;49.476;8.484;2023-03-26T13:17:35;1.85;;;1.00;;
8958;SDS011;4514;49.476;8.484;2023-03-26T13:20:33;3.92;;;1.30;;
8958;SDS011;4514;49.476;8.484;2023-03-26T13:33:53;2.17;;;1.10;;
8958;SDS011;4514;49.476;8.484;2023-03-26T13:41:38;2.65;;;1.20;;
8958;SDS011;4514;49.476;8.484;2023-03-26T13:47:06;3.25;;;1.42;;
8958;SDS011;4514;49.476;8.484;2023-03-26T13:49:40;10.68;;;6.10;;
8958;SDS011;4514;49.476;8.484;2023-03-26T13:52:13;11.82;;;7.68;;
8958;SDS011;4514;49.476;8.484;2023-03-26T14:00:09;3.00;;;1.67;;
8958;SDS011;4514;49.476;8.484;2023-03-26T14:02:41;3.88;;;2.20;;
8958;SDS011;4514;49.476;8.484;2023-03-26T14:05:16;6.38;;;2.90;;
8958;SDS011;4514;49.476;8.484;2023-03-26T14:07:52;3.35;;;1.30;;
8958;SDS011;4514;49.476;8.484;2023-03-26T14:24:02;3.60;;;1.40;;
8958;SDS011;4514;49.476;8.484;2023-03-26T14:26:53;2.13;;;1.05;;
8958;SDS011;4514;49.476;8.484;2023-03-26T14:29:50;2.80;;;1.10;;
8958;SDS011;4514;49.476;8.484;2023-03-26T14:35:05;3.67;;;1.20;;
8958;SDS011;4514;49.476;8.484;2023-03-26T14:43:00;1.33;;;0.90;;
8958;SDS011;4514;49.476;8.484;2023-03-26T14:48:52;3.10;;;1.00;;
8958;SDS011;4514;49.476;8.484;2023-03-26T14:54:19;2.03;;;1.00;;
8958;SDS011;4514;49.476;8.484;2023-03-26T15:22:47;2.47;;;1.10;;
8958;SDS011;4514;49.476;8.484;2023-03-26T15:31:14;2.90;;;1.33;;
8958;SDS011;4514;49.476;8.484;2023-03-26T15:39:32;1.23;;;0.90;;
8958;SDS011;4514;49.476;8.484;2023-03-26T15:45:11;1.30;;;1.20;;
8958;SDS011;4514;49.476;8.484;2023-03-26T16:04:37;1.52;;;0.98;;
8958;SDS011;4514;49.476;8.484;2023-03-26T16:34:56;1.67;;;0.90;;
8958;SDS011;4514;49.476;8.484;2023-03-26T16:42:40;3.43;;;2.37;;
8958;SDS011;4514;49.476;8.484;2023-03-26T16:47:56;1.83;;;1.13;;
8958;SDS011;4514;49.476;8.484;2023-03-26T16:50:27;1.63;;;1.10;;
8958;SDS011;4514;49.476;8.484;2023-03-26T16:53:14;1.90;;;1.10;;
8958;SDS011;4514;49.476;8.484;2023-03-26T16:55:42;6.05;;;4.80;;
8958;SDS011;4514;49.476;8.484;2023-03-26T16:58:14;5.22;;;2.90;;
8958;SDS011;4514;49.476;8.484;2023-03-26T17:01:07;2.55;;;1.20;;
8958;SDS011;4514;49.476;8.484;2023-03-26T17:06:20;1.67;;;1.10;;
8958;SDS011;4514;49.476;8.484;2023-03-26T17:12:27;3.25;;;1.20;;
8958;SDS011;4514;49.476;8.484;2023-03-26T17:23:34;1.67;;;1.20;;
8958;SDS011;4514;49.476;8.484;2023-03-26T17:26:19;2.35;;;1.20;;
8958;SDS011;4514;49.476;8.484;2023-03-26T17:28:54;1.50;;;1.08;;
8958;SDS011;4514;49.476;8.484;2023-03-26T17:37:11;1.60;;;0.98;;
8958;SDS011;4514;49.476;8.484;2023-03-26T17:44:54;3.72;;;1.48;;
8958;SDS011;4514;49.476;8.484;2023-03-26T17:50:15;4.50;;;1.25;;
8958;SDS011;4514;49.476;8.484;2023-03-26T17:55:21;2.70;;;1.27;;
8958;SDS011;4514;49.476;8.484;2023-03-26T17:57:51;2.50;;;1.27;;
8958;SDS011;4514;49.476;8.484;2023-03-26T18:00:20;3.92;;;1.35;;
8958;SDS011;4514;49.476;8.484;2023-03-26T18:02:56;1.30;;;1.17;;
8958;SDS011;4514;49.476;8.484;2023-03-26T18:05:28;1.67;;;1.30;;
8958;SDS011;4514;49.476;8.484;2023-03-26T18:13:37;2.35;;;1.10;;
8958;SDS011;4514;49.476;8.484;2023-03-26T18:16:17;2.33;;;1.33;;
8958;SDS011;4514;49.476;8.484;2023-03-26T18:18:53;1.40;;;0.90;;
8958;SDS011;4514;49.476;8.484;2023-03-26T18:21:24;1.55;;;0.88;;
8958;SDS011;4514;49.476;8.484;2023-03-26T18:24:00;1.17;;;1.00;;
8958;SDS011;4514;49.476;8.484;2023-03-26T18:26:35;1.10;;;0.90;;
8958;SDS011;4514;49.476;8.484;2023-03-26T18:34:24;1.50;;;0.95;;
8958;SDS011;4514;49.476;8.484;2023-03-26T18:36:57;1.35;;;1.25;;
8958;SDS011;4514;49.476;8.484;2023-03-26T18:39:25;2.00;;;1.25;;
8958;SDS011;4514;49.476;8.484;2023-03-26T18:41:50;1.77;;;1.10;;
8958;SDS011;4514;49.476;8.484;2023-03-26T18:44:16;1.45;;;0.95;;
8958;SDS011;4514;49.476;8.484;2023-03-26T18:46:42;2.80;;;1.40;;
8958;SDS011;4514;49.476;8.484;2023-03-26T18:49:17;1.77;;;1.13;;
8958;SDS011;4514;49.476;8.484;2023-03-26T18:51:44;1.92;;;1.48;;
8958;SDS011;4514;49.476;8.484;2023-03-26T18:54:12;2.30;;;1.30;;
8958;SDS011;4514;49.476;8.484;2023-03-26T18:56:45;2.85;;;1.30;;
8958;SDS011;4514;49.476;8.484;2023-03-26T18:59:27;2.33;;;1.40;;
8958;SDS011;4514;49.476;8.484;2023-03-26T19:01:56;3.13;;;1.40;;
8958;SDS011;4514;49.476;8.484;2023-03-26T19:04:27;3.53;;;1.40;;
8958;SDS011;4514;49.476;8.484;2023-03-26T19:06:57;1.77;;;1.20;;
8958;SDS011;4514;49.476;8.484;2023-03-26T19:09:23;2.22;;;1.40;;
8958;SDS011;4514;49.476;8.484;2023-03-26T19:11:55;3.30;;;1.17;;
8958;SDS011;4514;49.476;8.484;2023-03-26T19:14:22;2.28;;;1.20;;
8958;SDS011;4514;49.476;8.484;2023-03-26T19:16:52;2.30;;;1.40;;
8958;SDS011;4514;49.476;8.484;2023-03-26T19:19:27;1.70;;;1.30;;
8958;SDS011;4514;49.476;8.484;2023-03-26T19:21:57;2.55;;;1.40;;
8958;SDS011;4514;49.476;8.484;2023-03-26T19:24:23;3.85;;;1.48;;
8958;SDS011;4514;49.476;8.484;2023-03-26T19:26:51;3.35;;;1.52;;
8958;SDS011;4514;49.476;8.484;2023-03-26T19:29:21;1.80;;;1.10;;
8958;SDS011;4514;49.476;8.484;2023-03-26T19:31:50;3.13;;;1.35;;
8958;SDS011;4514;49.476;8.484;2023-03-26T19:34:24;2.95;;;1.48;;
8958;SDS011;4514;49.476;8.484;2023-03-26T19:36:56;3.45;;;1.40;;
8958;SDS011;4514;49.476;8.484;2023-03-26T19:42:20;3.47;;;1.58;;
8958;SDS011;4514;49.476;8.484;2023-03-26T19:44:50;2.03;;;1.38;;
8958;SDS011;4514;49.476;8.484;2023-03-26T19:47:21;2.45;;;1.52;;
8958;SDS011;4514;49.476;8.484;2023-03-26T19:52:21;3.70;;;1.70;;
8958;SDS011;4514;49.476;8.484;2023-03-26T19:54:54;1.88;;;1.40;;
8958;SDS011;4514;49.476;8.484;2023-03-26T19:57:25;7.28;;;4.68;;
8958;SDS011;4514;49.476;8.484;2023-03-26T19:59:54;5.10;;;1.90;;
8958;SDS011;4514;49.476;8.484;2023-03-26T20:02:20;2.10;;;1.30;;
8958;SDS011;4514;49.476;8.484;2023-03-26T20:04:46;2.88;;;1.63;;
8958;SDS011;4514;49.476;8.484;2023-03-26T20:07:22;1.98;;;1.38;;
8958;SDS011;4514;49.476;8.484;2023-03-26T20:09:51;2.67;;;1.15;;
8958;SDS011;4514;49.476;8.484;2023-03-26T20:12:24;1.75;;;1.20;;
8958;SDS011;4514;49.476;8.484;2023-03-26T20:14:49;2.80;;;1.30;;
8958;SDS011;4514;49.476;8.484;2023-03-26T20:17:18;2.17;;;1.23;;
8958;SDS011;4514;49.476;8.484;2023-03-26T20:19:46;3.15;;;1.48;;
8958;SDS011;4514;49.476;8.484;2023-03-26T20:22:13;1.48;;;1.17;;
8958;SDS011;4514;49.476;8.484;2023-03-26T20:24:41;2.05;;;1.15;;
8958;SDS011;4514;49.476;8.484;2023-03-26T20:27:12;2.78;;;1.08;;
8958;SDS011;4514;49.476;8.484;2023-03-26T20:29:38;1.83;;;1.20;;
8958;SDS011;4514;49.476;8.484;2023-03-26T20:32:26;2.03;;;1.40;;
8958;SDS011;4514;49.476;8.484;2023-03-26T20:34:51;2.85;;;1.60;;
8958;SDS011;4514;49.476;8.484;2023-03-26T20:37:16;2.90;;;2.05;;
8958;SDS011;4514;49.476;8.484;2023-03-26T20:39:44;2.03;;;1.70;;
8958;SDS011;4514;49.476;8.484;2023-03-26T20:42:10;2.53;;;1.70;;
8958;SDS011;4514;49.476;8.484;2023-03-26T20:44:38;2.70;;;1.88;;
8958;SDS011;4514;49.476;8.484;2023-03-26T20:47:03;2.70;;;1.50;;
8958;SDS011;4514;49.476;8.484;2023-03-26T20:49:29;2.42;;;1.38;;
8958;SDS011;4514;49.476;8.484;2023-03-26T20:51:56;2.95;;;1.10;;
8958;SDS011;4514;49.476;8.484;2023-03-26T20:54:24;1.52;;;1.33;;
8958;SDS011;4514;49.476;8.484;2023-03-26T20:56:50;1.80;;;1.25;;
8958;SDS011;4514;49.476;8.484;2023-03-26T20:59:18;2.40;;;1.33;;
8958;SDS011;4514;49.476;8.484;2023-03-26T21:01:46;2.58;;;1.80;;
8958;SDS011;4514;49.476;8.484;2023-03-26T21:04:13;2.22;;;1.60;;
8958;SDS011;4514;49.476;8.484;2023-03-26T21:06:41;2.45;;;1.83;;
8958;SDS011;4514;49.476;8.484;2023-03-26T21:09:14;2.83;;;1.58;;
8958;SDS011;4514;49.476;8.484;2023-03-26T21:11:52;1.95;;;1.42;;
8958;SDS011;4514;49.476;8.484;2023-03-26T21:14:26;3.25;;;1.50;;
8958;SDS011;4514;49.476;8.484;2023-03-26T21:16:52;2.92;;;1.30;;
8958;SDS011;4514;49.476;8.484;2023-03-26T21:19:18;3.30;;;2.08;;
8958;SDS011;4514;49.476;8.484;2023-03-26T21:21:58;5.90;;;3.13;;
8958;SDS011;4514;49.476;8.484;2023-03-26T21:24:31;4.03;;;2.28;;
8958;SDS011;4514;49.476;8.484;2023-03-26T21:27:09;3.40;;;2.20;;
8958;SDS011;4514;49.476;8.484;2023-03-26T21:29:38;2.67;;;1.48;;
8958;SDS011;4514;49.476;8.484;2023-03-26T21:32:10;2.45;;;1.67;;
8958;SDS011;4514;49.476;8.484;2023-03-26T21:34:36;2.13;;;1.45;;
8958;SDS011;4514;49.476;8.484;2023-03-26T21:37:05;2.03;;;1.45;;
8958;SDS011;4514;49.476;8.484;2023-03-26T21:39:31;2.95;;;1.60;;
8958;SDS011;4514;49.476;8.484;2023-03-26T21:41:58;2.15;;;1.42;;
8958;SDS011;4514;49.476;8.484;2023-03-26T21:44:23;2.40;;;1.52;;
8958;SDS011;4514;49.476;8.484;2023-03-26T21:46:50;2.45;;;1.73;;
8958;SDS011;4514;49.476;8.484;2023-03-26T21:49:15;4.70;;;4.30;;
8958;SDS011;4514;49.476;8.484;2023-03-26T21:51:42;3.78;;;3.47;;
8958;SDS011;4514;49.476;8.484;2023-03-26T22:01:58;2.95;;;2.40;;
8958;SDS011;4514;49.476;8.484;2023-03-26T22:07:17;3.67;;;2.75;;